createdAt,value
2023-05-06T00:01:48.887Z,8.98
2023-05-06T00:04:19.597Z,8.97
2023-05-06T00:06:50.243Z,8.93
2023-05-06T00:09:21.285Z,8.90
2023-05-06T00:11:51.867Z,8.88
2023-05-06T00:14:22.539Z,8.86
2023-05-06T00:16:53.050Z,8.82
2023-05-06T00:19:23.577Z,8.79
2023-05-06T00:21:55.993Z,8.77
2023-05-06T00:24:26.518Z,8.74
2023-05-06T00:26:58.582Z,8.71
2023-05-06T00:29:29.117Z,8.68
2023-05-06T00:31:59.810Z,8.64
2023-05-06T00:34:30.431Z,8.62
2023-05-06T00:37:00.972Z,8.61
2023-05-06T00:39:32.151Z,8.59
2023-05-06T00:42:03.625Z,8.56
2023-05-06T00:44:34.244Z,8.55
2023-05-06T00:47:05.724Z,8.51
2023-05-06T00:49:36.300Z,8.48
2023-05-06T00:52:07.034Z,8.46
2023-05-06T00:54:37.787Z,8.42
2023-05-06T00:57:08.445Z,8.38
2023-05-06T00:59:39.815Z,8.35
2023-05-06T01:02:10.500Z,8.27
2023-05-06T01:04:42.147Z,8.25
2023-05-06T01:07:17.952Z,8.25
2023-05-06T01:09:52.587Z,8.26
2023-05-06T01:12:29.182Z,8.23
2023-05-06T01:15:06.611Z,8.19
2023-05-06T01:17:38.081Z,8.15
2023-05-06T01:20:12.090Z,8.12
2023-05-06T01:22:42.584Z,8.11
2023-05-06T01:25:20.639Z,8.08
2023-05-06T01:27:51.677Z,8.05
2023-05-06T01:30:24.249Z,8.04
2023-05-06T01:33:01.920Z,8.03
2023-05-06T01:35:36.601Z,8.04
2023-05-06T01:38:12.574Z,8.04
2023-05-06T01:40:43.878Z,8.01
2023-05-06T01:43:16.088Z,7.99
2023-05-06T01:45:53.215Z,7.98
2023-05-06T01:48:25.938Z,7.99
2023-05-06T01:50:56.662Z,7.98
2023-05-06T01:53:27.258Z,7.97
2023-05-06T01:55:57.865Z,7.94
2023-05-06T01:58:28.499Z,7.92
2023-05-06T02:00:58.972Z,7.87
2023-05-06T02:03:29.566Z,7.85
2023-05-06T02:06:00.596Z,7.82
2023-05-06T02:08:33.038Z,7.78
2023-05-06T02:11:03.785Z,7.76
2023-05-06T02:13:35.143Z,7.72
2023-05-06T02:16:05.974Z,7.69
2023-05-06T02:18:36.669Z,7.65
2023-05-06T02:21:07.192Z,7.63
2023-05-06T02:23:37.819Z,7.61
2023-05-06T02:26:08.456Z,7.60
2023-05-06T02:28:39.023Z,7.58
2023-05-06T02:31:09.614Z,7.53
2023-05-06T02:33:40.268Z,7.52
2023-05-06T02:36:10.864Z,7.49
2023-05-06T02:38:41.437Z,7.47
2023-05-06T02:41:12.045Z,7.46
2023-05-06T02:43:42.591Z,7.45
2023-05-06T02:46:13.788Z,7.44
2023-05-06T02:48:44.442Z,7.43
2023-05-06T02:51:15.126Z,7.42
2023-05-06T02:53:45.716Z,7.40
2023-05-06T02:56:16.392Z,7.38
2023-05-06T02:58:47.030Z,7.38
2023-05-06T03:01:17.593Z,7.35
2023-05-06T03:03:48.276Z,7.33
2023-05-06T03:06:18.889Z,7.31
2023-05-06T03:08:50.063Z,7.34
2023-05-06T03:11:21.283Z,7.33
2023-05-06T03:13:51.909Z,7.33
2023-05-06T03:16:22.687Z,7.32
2023-05-06T03:18:54.763Z,7.32
2023-05-06T03:21:25.454Z,7.32
2023-05-06T03:23:56.184Z,7.35
2023-05-06T03:26:27.637Z,7.34
2023-05-06T03:28:58.155Z,7.31
2023-05-06T03:31:28.973Z,7.30
2023-05-06T03:33:59.708Z,7.30
2023-05-06T03:36:31.756Z,7.30
2023-05-06T03:39:02.740Z,7.28
2023-05-06T03:41:34.751Z,7.28
2023-05-06T03:44:06.086Z,7.28
2023-05-06T03:46:36.773Z,7.25
2023-05-06T03:49:07.452Z,7.22
2023-05-06T03:51:38.543Z,7.18
2023-05-06T03:54:09.701Z,7.16
2023-05-06T03:56:40.341Z,7.17
2023-05-06T03:59:11.083Z,7.17
2023-05-06T04:01:42.174Z,7.18
2023-05-06T04:04:13.482Z,7.17
2023-05-06T04:06:44.316Z,7.16
2023-05-06T04:09:14.877Z,7.14
2023-05-06T04:11:45.715Z,7.13
2023-05-06T04:14:17.348Z,7.13
2023-05-06T04:16:47.878Z,7.14
2023-05-06T04:19:18.718Z,7.16
2023-05-06T04:21:49.963Z,7.19
2023-05-06T04:24:21.604Z,7.22
2023-05-06T04:26:52.155Z,7.24
2023-05-06T04:29:23.248Z,7.24
2023-05-06T04:32:01.411Z,7.25
2023-05-06T04:34:33.104Z,7.25
2023-05-06T04:37:05.740Z,7.27
2023-05-06T04:39:47.570Z,7.31
2023-05-06T04:42:18.234Z,7.34
2023-05-06T04:44:54.530Z,7.38
2023-05-06T04:47:28.159Z,7.40
2023-05-06T04:49:58.936Z,7.40
2023-05-06T04:52:30.775Z,7.40
2023-05-06T04:55:01.308Z,7.39
2023-05-06T04:57:33.722Z,7.38
2023-05-06T05:00:07.155Z,7.39
2023-05-06T05:02:38.958Z,7.39
2023-05-06T05:05:10.751Z,7.39
2023-05-06T05:07:42.785Z,7.40
2023-05-06T05:10:13.429Z,7.41
2023-05-06T05:12:44.011Z,7.39
2023-05-06T05:15:15.223Z,7.38
2023-05-06T05:17:45.885Z,7.38
2023-05-06T05:20:17.683Z,7.39
2023-05-06T05:22:48.121Z,7.41
2023-05-06T05:25:18.828Z,7.40
2023-05-06T05:27:49.736Z,7.41
2023-05-06T05:30:21.838Z,7.43
2023-05-06T05:32:53.098Z,7.46
2023-05-06T05:35:23.796Z,7.46
2023-05-06T05:37:55.033Z,7.49
2023-05-06T05:40:26.417Z,7.52
2023-05-06T05:42:57.251Z,7.55
2023-05-06T05:45:33.421Z,7.58
2023-05-06T05:48:04.201Z,7.62
2023-05-06T05:50:34.812Z,7.66
2023-05-06T05:53:05.680Z,7.69
2023-05-06T05:55:39.766Z,7.73
2023-05-06T05:58:10.809Z,7.76
2023-05-06T06:00:41.871Z,7.78
2023-05-06T06:03:14.262Z,7.84
2023-05-06T06:05:44.949Z,7.88
2023-05-06T06:08:18.496Z,7.93
2023-05-06T06:10:49.639Z,7.98
2023-05-06T06:13:24.208Z,8.01
2023-05-06T06:15:57.063Z,8.03
2023-05-06T06:18:27.770Z,8.06
2023-05-06T06:20:58.390Z,8.10
2023-05-06T06:23:28.986Z,8.12
2023-05-06T06:25:59.733Z,8.17
2023-05-06T06:28:30.261Z,8.20
2023-05-06T06:31:02.117Z,8.23
2023-05-06T06:33:32.709Z,8.28
2023-05-06T06:36:03.361Z,8.33
2023-05-06T06:38:34.095Z,8.36
2023-05-06T06:41:05.153Z,8.42
2023-05-06T06:43:36.000Z,8.47
2023-05-06T06:46:19.322Z,8.54
2023-05-06T06:48:49.888Z,8.60
2023-05-06T06:51:20.458Z,8.67
2023-05-06T06:53:51.031Z,8.73
2023-05-06T06:56:22.255Z,8.79
2023-05-06T06:58:53.395Z,8.85
2023-05-06T07:01:24.251Z,8.94
2023-05-06T07:03:54.888Z,9.02
2023-05-06T07:06:25.595Z,9.12
2023-05-06T07:08:56.505Z,9.20
2023-05-06T07:11:27.092Z,9.28
2023-05-06T07:13:57.930Z,9.36
2023-05-06T07:16:28.661Z,9.43
2023-05-06T07:18:59.336Z,9.51
2023-05-06T07:21:32.337Z,9.59
2023-05-06T07:24:02.935Z,9.69
2023-05-06T07:26:36.307Z,9.79
2023-05-06T07:29:06.883Z,9.90
2023-05-06T07:31:37.466Z,9.97
2023-05-06T07:34:08.708Z,10.03
2023-05-06T07:36:43.281Z,10.11
2023-05-06T07:39:15.200Z,10.16
2023-05-06T07:41:47.036Z,10.16
2023-05-06T07:44:17.652Z,10.19
2023-05-06T07:46:48.365Z,10.23
2023-05-06T07:49:18.960Z,10.30
2023-05-06T07:51:49.469Z,10.36
2023-05-06T07:54:20.008Z,10.43
2023-05-06T07:56:50.521Z,10.50
2023-05-06T07:59:21.036Z,10.56
2023-05-06T08:01:51.600Z,10.62
2023-05-06T08:04:22.235Z,10.68
2023-05-06T08:06:53.805Z,10.72
2023-05-06T08:09:24.352Z,10.72
2023-05-06T08:11:54.927Z,10.74
2023-05-06T08:14:26.165Z,10.74
2023-05-06T08:16:56.747Z,10.76
2023-05-06T08:19:27.662Z,10.79
2023-05-06T08:21:58.748Z,10.82
2023-05-06T08:24:29.381Z,10.84
2023-05-06T08:26:59.916Z,10.85
2023-05-06T08:29:30.510Z,10.86
2023-05-06T08:32:01.696Z,10.86
2023-05-06T08:34:32.364Z,10.89
2023-05-06T08:37:03.001Z,10.92
2023-05-06T08:39:34.128Z,10.96
2023-05-06T08:42:05.452Z,11.00
2023-05-06T08:44:36.043Z,11.04
2023-05-06T08:47:06.681Z,11.09
2023-05-06T08:49:37.344Z,11.14
2023-05-06T08:52:08.083Z,11.19
2023-05-06T08:54:39.326Z,11.23
2023-05-06T08:57:12.755Z,11.26
2023-05-06T08:59:43.703Z,11.28
2023-05-06T09:02:14.330Z,11.32
2023-05-06T09:04:45.830Z,11.34
2023-05-06T09:07:16.378Z,11.34
2023-05-06T09:09:46.980Z,11.33
2023-05-06T09:12:17.527Z,11.33
2023-05-06T09:14:51.023Z,11.34
2023-05-06T09:17:24.484Z,11.39
2023-05-06T09:19:57.136Z,11.42
2023-05-06T09:22:29.158Z,11.48
2023-05-06T09:24:59.931Z,11.54
2023-05-06T09:27:31.312Z,11.58
2023-05-06T09:30:03.444Z,11.62
2023-05-06T09:32:35.627Z,11.64
2023-05-06T09:35:08.702Z,11.69
2023-05-06T09:37:39.736Z,11.74
2023-05-06T09:40:11.956Z,11.75
2023-05-06T09:42:44.718Z,11.74
2023-05-06T09:45:17.122Z,11.76
2023-05-06T09:47:49.707Z,11.78
2023-05-06T09:50:21.885Z,11.79
2023-05-06T09:52:52.487Z,11.81
2023-05-06T09:55:26.835Z,11.84
2023-05-06T09:57:57.776Z,11.88
2023-05-06T10:00:30.088Z,11.92
2023-05-06T10:03:02.104Z,11.96
2023-05-06T10:05:33.631Z,12.00
2023-05-06T10:08:05.060Z,12.04
2023-05-06T10:10:36.149Z,12.08
2023-05-06T10:13:06.843Z,12.13
2023-05-06T10:15:39.146Z,12.18
2023-05-06T10:18:10.490Z,12.23
2023-05-06T10:20:42.478Z,12.27
2023-05-06T10:23:14.924Z,12.29
2023-05-06T10:25:46.952Z,12.28
2023-05-06T10:28:26.560Z,12.24
2023-05-06T10:31:01.024Z,12.21
2023-05-06T10:33:32.139Z,12.15
2023-05-06T10:36:10.100Z,12.11
2023-05-06T10:38:42.782Z,12.09
2023-05-06T10:41:13.752Z,12.05
2023-05-06T10:43:45.495Z,12.01
2023-05-06T10:46:16.662Z,11.96
2023-05-06T10:49:00.752Z,11.92
2023-05-06T10:51:31.676Z,11.87
2023-05-06T10:54:06.913Z,11.83
2023-05-06T10:56:38.125Z,11.81
2023-05-06T10:59:09.526Z,11.80
2023-05-06T11:01:41.211Z,11.78
2023-05-06T11:04:12.634Z,11.76
2023-05-06T11:06:44.705Z,11.76
2023-05-06T11:09:19.240Z,11.75
2023-05-06T11:11:51.265Z,11.76
2023-05-06T11:14:28.952Z,11.76
2023-05-06T11:17:00.069Z,11.77
2023-05-06T11:19:31.484Z,11.78
2023-05-06T11:22:02.745Z,11.77
2023-05-06T11:24:39.356Z,11.75
2023-05-06T11:27:10.576Z,11.75
2023-05-06T11:29:44.246Z,11.75
2023-05-06T11:32:21.824Z,11.75
2023-05-06T11:34:55.724Z,11.75
2023-05-06T11:37:30.142Z,11.71
2023-05-06T11:40:00.686Z,11.69
2023-05-06T11:42:31.275Z,11.67
2023-05-06T11:45:03.333Z,11.65
2023-05-06T11:47:33.912Z,11.62
2023-05-06T11:50:07.734Z,11.60
2023-05-06T11:52:38.393Z,11.59
2023-05-06T11:55:11.189Z,11.57
2023-05-06T11:57:47.071Z,11.54
2023-05-06T12:00:18.894Z,11.52
2023-05-06T12:02:49.588Z,11.49
2023-05-06T12:05:23.545Z,11.45
2023-05-06T12:07:54.249Z,11.38
2023-05-06T12:10:24.794Z,11.31
2023-05-06T12:12:55.642Z,11.27
2023-05-06T12:15:26.676Z,11.22
2023-05-06T12:17:57.867Z,11.19
2023-05-06T12:20:28.699Z,11.16
2023-05-06T12:23:09.089Z,11.13
2023-05-06T12:25:40.185Z,11.09
2023-05-06T12:28:17.067Z,11.07
2023-05-06T12:30:47.880Z,11.04
2023-05-06T12:33:18.454Z,11.05
2023-05-06T12:35:49.121Z,11.04
2023-05-06T12:38:19.630Z,11.03
2023-05-06T12:40:55.781Z,11.03
2023-05-06T12:43:31.482Z,11.05
2023-05-06T12:46:06.427Z,11.05
2023-05-06T12:48:37.156Z,11.03
2023-05-06T12:51:21.147Z,11.03
2023-05-06T12:53:51.782Z,11.02
2023-05-06T12:56:22.690Z,11.01
2023-05-06T12:59:00.427Z,11.02
2023-05-06T13:01:31.668Z,11.03
2023-05-06T13:04:02.498Z,11.03
2023-05-06T13:06:32.955Z,11.02
2023-05-06T13:09:04.760Z,11.02
2023-05-06T13:11:35.278Z,10.99
2023-05-06T13:14:05.842Z,10.98
2023-05-06T13:16:36.555Z,10.99
2023-05-06T13:19:08.215Z,10.99
2023-05-06T13:21:42.584Z,10.99
2023-05-06T13:24:13.158Z,11.01
2023-05-06T13:26:43.748Z,11.02
2023-05-06T13:29:14.226Z,11.02
2023-05-06T13:31:44.769Z,11.02
2023-05-06T13:34:15.321Z,11.03
2023-05-06T13:36:46.899Z,11.03
2023-05-06T13:39:17.751Z,11.04
2023-05-06T13:41:50.225Z,11.02
2023-05-06T13:44:21.557Z,11.02
2023-05-06T13:46:52.738Z,11.02
2023-05-06T13:49:23.402Z,11.01
2023-05-06T13:51:54.497Z,11.00
2023-05-06T13:54:25.184Z,10.99
2023-05-06T13:56:55.708Z,10.98
2023-05-06T13:59:26.393Z,10.98
2023-05-06T14:01:57.469Z,10.96
2023-05-06T14:04:28.002Z,10.97
2023-05-06T14:06:59.326Z,10.99
2023-05-06T14:09:29.910Z,10.99
2023-05-06T14:12:00.694Z,11.00
2023-05-06T14:14:31.280Z,11.00
2023-05-06T14:17:01.869Z,11.02
2023-05-06T14:19:32.570Z,11.03
2023-05-06T14:22:03.080Z,11.03
2023-05-06T14:24:33.628Z,11.04
2023-05-06T14:27:04.267Z,11.04
2023-05-06T14:29:34.944Z,11.05
2023-05-06T14:32:05.762Z,11.05
2023-05-06T14:34:37.220Z,11.08
2023-05-06T14:37:08.041Z,11.09
2023-05-06T14:39:38.650Z,11.09
2023-05-06T14:42:09.190Z,11.10
2023-05-06T14:44:39.674Z,11.10
2023-05-06T14:47:10.248Z,11.09
2023-05-06T14:49:41.031Z,11.09
2023-05-06T14:52:11.666Z,11.10
2023-05-06T14:54:42.768Z,11.10
2023-05-06T14:57:13.460Z,11.11
2023-05-06T14:59:43.889Z,11.10
2023-05-06T15:02:14.401Z,11.11
2023-05-06T15:04:46.052Z,11.10
2023-05-06T15:07:16.633Z,11.09
2023-05-06T15:09:47.295Z,11.09
2023-05-06T15:12:17.929Z,11.10
2023-05-06T15:14:48.624Z,11.11
2023-05-06T15:17:19.130Z,11.10
2023-05-06T15:19:49.711Z,11.10
2023-05-06T15:22:20.175Z,11.09
2023-05-06T15:24:50.591Z,11.08
2023-05-06T15:27:21.164Z,11.08
2023-05-06T15:29:51.786Z,11.09
2023-05-06T15:32:22.357Z,11.11
2023-05-06T15:34:52.805Z,11.11
2023-05-06T15:37:23.981Z,11.12
2023-05-06T15:39:54.523Z,11.14
2023-05-06T15:42:25.044Z,11.16
2023-05-06T15:44:55.554Z,11.16
2023-05-06T15:47:26.148Z,11.17
2023-05-06T15:49:56.787Z,11.17
2023-05-06T15:52:27.318Z,11.17
2023-05-06T15:54:59.417Z,11.17
2023-05-06T15:57:31.221Z,11.18
2023-05-06T16:00:01.856Z,11.19
2023-05-06T16:02:35.416Z,11.19
2023-05-06T16:05:06.257Z,11.18
2023-05-06T16:07:36.813Z,11.20
2023-05-06T16:10:08.844Z,11.20
2023-05-06T16:12:39.599Z,11.20
2023-05-06T16:15:11.121Z,11.20
2023-05-06T16:17:41.926Z,11.20
2023-05-06T16:20:13.447Z,11.18
2023-05-06T16:22:50.401Z,11.17
2023-05-06T16:25:20.948Z,11.18
2023-05-06T16:27:51.453Z,11.19
2023-05-06T16:30:22.017Z,11.19
2023-05-06T16:32:52.727Z,11.19
2023-05-06T16:35:23.270Z,11.19
2023-05-06T16:37:53.903Z,11.19
2023-05-06T16:40:24.428Z,11.19
2023-05-06T16:42:55.271Z,11.19
2023-05-06T16:45:25.821Z,11.19
2023-05-06T16:47:56.405Z,11.19
2023-05-06T16:50:27.037Z,11.20
2023-05-06T16:52:57.738Z,11.21
2023-05-06T16:55:28.235Z,11.22
2023-05-06T16:58:00.914Z,11.23
2023-05-06T17:00:31.925Z,11.23
2023-05-06T17:03:02.684Z,11.22
2023-05-06T17:05:33.236Z,11.21
2023-05-06T17:08:04.582Z,11.21
2023-05-06T17:10:35.101Z,11.21
2023-05-06T17:13:06.101Z,11.22
2023-05-06T17:15:37.606Z,11.21
2023-05-06T17:18:08.226Z,11.22
2023-05-06T17:20:51.468Z,11.23
2023-05-06T17:23:26.324Z,11.23
2023-05-06T17:25:58.239Z,11.24
2023-05-06T17:28:28.886Z,11.25
2023-05-06T17:30:59.393Z,11.25
2023-05-06T17:33:29.931Z,11.25
2023-05-06T17:36:00.488Z,11.25
2023-05-06T17:38:31.046Z,11.25
2023-05-06T17:41:01.578Z,11.25
2023-05-06T17:43:33.697Z,11.25
2023-05-06T17:46:04.265Z,11.25
2023-05-06T17:48:35.501Z,11.25
2023-05-06T17:51:06.094Z,11.24
2023-05-06T17:53:37.662Z,11.24
2023-05-06T17:56:08.445Z,11.24
2023-05-06T17:58:38.951Z,11.22
2023-05-06T18:01:09.618Z,11.21
2023-05-06T18:03:41.346Z,11.21
2023-05-06T18:06:12.199Z,11.19
2023-05-06T18:08:42.699Z,11.17
2023-05-06T18:11:13.230Z,11.17
2023-05-06T18:13:43.728Z,11.15
2023-05-06T18:16:14.464Z,11.14
2023-05-06T18:18:45.135Z,11.13
2023-05-06T18:21:15.631Z,11.11
2023-05-06T18:23:46.238Z,11.08
2023-05-06T18:26:27.239Z,11.06
2023-05-06T18:29:07.287Z,11.03
2023-05-06T18:31:37.818Z,11.02
2023-05-06T18:34:08.374Z,10.99
2023-05-06T18:36:38.926Z,10.98
2023-05-06T18:39:09.459Z,10.97
2023-05-06T18:41:40.057Z,10.94
2023-05-06T18:44:10.949Z,10.92
2023-05-06T18:46:41.485Z,10.91
2023-05-06T18:49:14.192Z,10.88
2023-05-06T18:51:44.918Z,10.86
2023-05-06T18:54:16.337Z,10.84
2023-05-06T18:56:47.370Z,10.81
2023-05-06T18:59:18.584Z,10.81
2023-05-06T19:01:49.063Z,10.80
2023-05-06T19:04:19.557Z,10.77
2023-05-06T19:06:51.672Z,10.75
2023-05-06T19:09:22.266Z,10.72
2023-05-06T19:11:52.721Z,10.70
2023-05-06T19:14:25.480Z,10.69
2023-05-06T19:16:56.228Z,10.67
2023-05-06T19:19:26.792Z,10.65
2023-05-06T19:21:57.576Z,10.62
2023-05-06T19:24:28.212Z,10.59
2023-05-06T19:26:58.683Z,10.58
2023-05-06T19:29:29.245Z,10.58
2023-05-06T19:32:00.378Z,10.58
2023-05-06T19:34:31.053Z,10.57
2023-05-06T19:37:01.550Z,10.56
2023-05-06T19:39:32.253Z,10.56
2023-05-06T19:42:02.919Z,10.52
2023-05-06T19:44:33.472Z,10.48
2023-05-06T19:47:03.944Z,10.46
2023-05-06T19:49:34.465Z,10.43
2023-05-06T19:52:05.251Z,10.41
2023-05-06T19:54:35.792Z,10.40
2023-05-06T19:57:06.427Z,10.37
2023-05-06T19:59:36.921Z,10.35
2023-05-06T20:02:09.822Z,10.35
2023-05-06T20:04:40.667Z,10.35
2023-05-06T20:07:12.501Z,10.35
2023-05-06T20:09:42.989Z,10.34
2023-05-06T20:12:13.439Z,10.30
2023-05-06T20:14:43.995Z,10.28
2023-05-06T20:17:14.492Z,10.27
2023-05-06T20:19:45.134Z,10.25
2023-05-06T20:22:16.904Z,10.23
2023-05-06T20:24:47.791Z,10.23
2023-05-06T20:27:18.308Z,10.20
2023-05-06T20:29:51.725Z,10.16
2023-05-06T20:32:22.298Z,10.14
2023-05-06T20:34:53.348Z,10.12
2023-05-06T20:37:24.513Z,10.10
2023-05-06T20:39:55.221Z,10.09
2023-05-06T20:42:25.747Z,10.06
2023-05-06T20:44:56.308Z,10.04
2023-05-06T20:47:27.275Z,10.02
2023-05-06T20:49:58.376Z,10.01
2023-05-06T20:52:28.901Z,9.98
2023-05-06T20:55:00.373Z,9.94
2023-05-06T20:57:30.996Z,9.89
2023-05-06T21:00:01.572Z,9.88
2023-05-06T21:02:34.322Z,9.84
2023-05-06T21:05:08.920Z,9.78
2023-05-06T21:07:39.825Z,9.74
2023-05-06T21:10:11.857Z,9.72
2023-05-06T21:12:47.524Z,9.69
2023-05-06T21:15:18.099Z,9.64
2023-05-06T21:17:49.248Z,9.59
2023-05-06T21:20:20.309Z,9.55
2023-05-06T21:22:50.926Z,9.52
2023-05-06T21:25:21.925Z,9.48
2023-05-06T21:27:53.272Z,9.45
2023-05-06T21:30:23.813Z,9.41
2023-05-06T21:32:54.435Z,9.39
2023-05-06T21:35:25.611Z,9.36
2023-05-06T21:37:56.056Z,9.34
2023-05-06T21:40:26.651Z,9.31
2023-05-06T21:42:57.202Z,9.29
2023-05-06T21:45:28.341Z,9.29
2023-05-06T21:47:58.918Z,9.27
2023-05-06T21:50:31.730Z,9.27
2023-05-06T21:53:03.713Z,9.25
2023-05-06T21:55:34.386Z,9.25
2023-05-06T21:58:04.966Z,9.22
2023-05-06T22:00:35.512Z,9.19
2023-05-06T22:03:06.787Z,9.19
2023-05-06T22:05:37.418Z,9.19
2023-05-06T22:08:07.899Z,9.19
2023-05-06T22:10:40.531Z,9.16
2023-05-06T22:13:11.144Z,9.14
2023-05-06T22:15:42.056Z,9.09
2023-05-06T22:18:14.311Z,9.06
2023-05-06T22:20:44.983Z,9.01
2023-05-06T22:23:16.512Z,8.95
2023-05-06T22:25:47.346Z,8.92
2023-05-06T22:28:18.012Z,8.92
2023-05-06T22:30:49.146Z,8.93
2023-05-06T22:33:19.652Z,8.94
2023-05-06T22:35:50.125Z,8.96
2023-05-06T22:38:20.754Z,8.98
2023-05-06T22:40:51.540Z,8.98
2023-05-06T22:43:22.023Z,8.95
2023-05-06T22:45:52.900Z,8.93
2023-05-06T22:48:23.884Z,8.93
2023-05-06T22:50:55.210Z,8.93
2023-05-06T22:53:26.117Z,8.91
2023-05-06T22:55:57.086Z,8.92
2023-05-06T22:58:27.669Z,8.92
2023-05-06T23:00:58.212Z,8.92
2023-05-06T23:03:29.435Z,8.90
2023-05-06T23:06:00.070Z,8.88
2023-05-06T23:08:30.762Z,8.87
2023-05-06T23:11:02.015Z,8.85
2023-05-06T23:13:36.118Z,8.84
2023-05-06T23:16:07.878Z,8.83
2023-05-06T23:18:38.474Z,8.82
2023-05-06T23:21:09.487Z,8.80
2023-05-06T23:23:40.125Z,8.77
2023-05-06T23:26:10.641Z,8.75
2023-05-06T23:28:41.960Z,8.68
2023-05-06T23:31:12.541Z,8.65
2023-05-06T23:33:43.120Z,8.61
2023-05-06T23:36:13.674Z,8.60
2023-05-06T23:38:44.756Z,8.59
2023-05-06T23:41:15.278Z,8.57
2023-05-06T23:43:46.020Z,8.54
2023-05-06T23:46:17.068Z,8.54
2023-05-06T23:48:47.916Z,8.52
2023-05-06T23:51:18.418Z,8.49
2023-05-06T23:53:49.046Z,8.48
2023-05-06T23:56:20.694Z,8.46
2023-05-06T23:58:51.282Z,8.42
